Time;durP1;ratioP1;P1;durP2;ratioP2;P2;SDS_P1;SDS_P2;PMS_P1;PMS_P2;Temp;Humidity;BMP_temperature;BMP_pressure;BME280_temperature;BME280_humidity;BME280_pressure;Samples;Min_cycle;Max_cycle;Signal;HPM_P1;HPM_P2
2021/05/27 00:01:17;;;;;;;9.50;7.57;;;;;;;9.67;100.00;100748.31;4978558;28;20133;-82
2021/05/27 00:03:42;;;;;;;8.90;7.32;;;;;;;9.66;100.00;100730.53;4950110;28;20236;-85
2021/05/27 00:06:08;;;;;;;9.30;7.03;;;;;;;9.60;100.00;100740.06;4958905;28;20593;-80
2021/05/27 00:08:33;;;;;;;10.82;8.10;;;;;;;9.61;100.00;100744.44;4983578;28;20731;-81
2021/05/27 00:10:58;;;;;;;11.00;7.35;;;;;;;9.57;100.00;100737.69;4972048;28;20043;-81
2021/05/27 00:13:26;;;;;;;13.00;8.25;;;;;;;9.58;100.00;100747.44;4945112;28;20046;-83
2021/05/27 00:15:52;;;;;;;8.65;6.55;;;;;;;9.55;100.00;100750.44;4971823;28;20161;-82
2021/05/27 00:18:17;;;;;;;9.93;6.45;;;;;;;9.49;100.00;100745.69;4986147;28;20133;-82
2021/05/27 00:20:42;;;;;;;8.98;6.10;;;;;;;9.48;100.00;100754.72;4969463;28;20047;-82
2021/05/27 00:23:08;;;;;;;7.75;6.03;;;;;;;9.46;100.00;100754.88;4985068;28;20068;-80
2021/05/27 00:25:35;;;;;;;8.27;6.05;;;;;;;9.46;100.00;100759.41;4972311;28;20055;-81
2021/05/27 00:28:06;;;;;;;8.13;5.97;;;;;;;9.47;100.00;100756.56;4987537;28;20061;-83
2021/05/27 00:30:33;;;;;;;9.40;6.05;;;;;;;9.45;100.00;100761.25;4967869;28;20115;-80
2021/05/27 00:33:01;;;;;;;8.18;6.72;;;;;;;9.47;100.00;100761.09;4982669;28;20038;-82
2021/05/27 00:35:26;;;;;;;10.15;6.80;;;;;;;9.46;100.00;100748.69;4980522;28;20043;-82
2021/05/27 00:37:55;;;;;;;9.80;6.90;;;;;;;9.47;100.00;100759.25;4982380;28;20049;-83
2021/05/27 00:40:22;;;;;;;8.30;6.13;;;;;;;9.43;100.00;100767.75;4967649;28;20043;-82
2021/05/27 00:42:48;;;;;;;10.80;7.68;;;;;;;9.43;100.00;100754.34;4981670;28;20050;-80
2021/05/27 00:45:16;;;;;;;11.48;7.15;;;;;;;9.42;100.00;100774.13;4974844;28;20105;-83
2021/05/27 00:47:48;;;;;;;10.50;7.80;;;;;;;9.45;100.00;100776.47;4985878;28;20046;-81
2021/05/27 00:50:20;;;;;;;8.90;6.30;;;;;;;9.43;100.00;100783.81;4972101;28;20074;-80
2021/05/27 00:52:55;;;;;;;8.93;6.05;;;;;;;9.38;100.00;100772.72;4985323;28;20046;-82
2021/05/27 00:55:22;;;;;;;11.10;6.38;;;;;;;9.36;100.00;100775.59;4985196;28;20105;-80
2021/05/27 00:57:49;;;;;;;7.53;5.40;;;;;;;9.36;100.00;100774.75;4978597;28;20061;-79
2021/05/27 01:00:17;;;;;;;7.97;5.82;;;;;;;9.34;100.00;100776.72;4984532;28;20045;-82
2021/05/27 01:02:43;;;;;;;7.25;4.95;;;;;;;9.26;100.00;100783.72;4976233;28;20454;-80
2021/05/27 01:05:10;;;;;;;6.07;4.40;;;;;;;9.26;100.00;100775.69;4979149;28;20035;-83
2021/05/27 01:07:36;;;;;;;9.23;5.80;;;;;;;9.24;100.00;100777.69;4966704;28;20047;-81
2021/05/27 01:10:04;;;;;;;8.57;5.55;;;;;;;9.25;100.00;100784.69;4968419;28;20603;-84
2021/05/27 01:12:29;;;;;;;7.28;5.10;;;;;;;9.22;100.00;100776.97;4965869;28;20372;-82
2021/05/27 01:17:38;;;;;;;9.57;6.20;;;;;;;9.20;100.00;100781.66;4965274;28;20049;-80
2021/05/27 01:20:12;;;;;;;9.20;6.28;;;;;;;9.22;100.00;100789.53;4968782;28;20035;-80
2021/05/27 01:22:39;;;;;;;11.02;6.72;;;;;;;9.20;100.00;100792.34;4970265;28;20047;-81
2021/05/27 01:25:08;;;;;;;9.50;6.80;;;;;;;9.18;100.00;100794.38;4989788;28;20050;-80
2021/05/27 01:27:34;;;;;;;9.85;6.30;;;;;;;9.16;100.00;100790.16;4988296;28;20046;-82
2021/05/27 01:30:08;;;;;;;13.18;6.53;;;;;;;9.15;100.00;100789.31;4970352;28;20093;-79
2021/05/27 01:32:34;;;;;;;11.25;6.85;;;;;;;9.17;100.00;100786.47;4983181;28;20057;-81
2021/05/27 01:35:03;;;;;;;13.73;8.57;;;;;;;9.20;100.00;100792.34;4986662;28;20671;-82
2021/05/27 01:37:28;;;;;;;14.13;8.48;;;;;;;9.18;100.00;100790.84;4987428;28;20046;-81
2021/05/27 01:39:55;;;;;;;12.45;9.18;;;;;;;9.19;100.00;100790.69;4990633;28;20054;-81
2021/05/27 01:42:22;;;;;;;14.15;9.02;;;;;;;9.21;100.00;100785.19;4989389;28;20189;-82
2021/05/27 01:44:50;;;;;;;12.50;9.27;;;;;;;9.21;100.00;100785.19;4957461;28;20565;-83
2021/05/27 01:47:16;;;;;;;17.60;10.65;;;;;;;9.23;100.00;100799.25;4973223;28;20655;-82
2021/05/27 01:49:44;;;;;;;16.13;10.18;;;;;;;9.21;100.00;100798.56;4983345;28;20050;-81
2021/05/27 01:52:09;;;;;;;18.50;10.45;;;;;;;9.22;100.00;100792.22;4974225;28;20042;-81
2021/05/27 01:54:37;;;;;;;19.17;10.05;;;;;;;9.19;100.00;100790.69;4957902;28;20051;-82
2021/05/27 01:57:02;;;;;;;17.48;11.77;;;;;;;9.16;100.00;100793.66;4986993;28;20078;-82
2021/05/27 01:59:28;;;;;;;17.58;10.60;;;;;;;9.16;100.00;100787.47;4969735;28;20089;-83
2021/05/27 02:01:54;;;;;;;18.13;12.50;;;;;;;9.17;100.00;100791.84;4974143;28;20181;-80
2021/05/27 02:04:20;;;;;;;22.83;13.27;;;;;;;9.18;100.00;100797.03;4983395;28;20062;-80
2021/05/27 02:06:45;;;;;;;20.60;13.18;;;;;;;9.18;100.00;100791.69;4986218;28;20050;-80
2021/05/27 02:09:11;;;;;;;25.02;13.93;;;;;;;9.18;100.00;100791.69;4988677;28;20187;-80
2021/05/27 02:11:47;;;;;;;25.42;15.13;;;;;;;9.17;100.00;100797.19;4987373;28;20042;-82
2021/05/27 02:14:15;;;;;;;25.00;14.60;;;;;;;9.16;100.00;100795.50;4967597;28;20116;-83
2021/05/27 02:16:43;;;;;;;25.63;15.05;;;;;;;9.14;100.00;100798.34;4986131;28;20558;-83
2021/05/27 02:19:10;;;;;;;23.92;14.73;;;;;;;9.11;100.00;100804.00;4939991;28;20129;-79
2021/05/27 02:21:38;;;;;;;23.95;14.75;;;;;;;9.12;100.00;100797.66;4988050;28;20133;-81
2021/05/27 02:24:06;;;;;;;24.88;13.68;;;;;;;9.10;100.00;100807.69;4969310;28;20125;-82
2021/05/27 02:26:31;;;;;;;27.10;14.02;;;;;;;9.09;100.00;100797.97;4970700;28;20042;-82
2021/05/27 02:29:00;;;;;;;23.98;14.23;;;;;;;9.09;100.00;100803.34;4965162;28;20046;-80
2021/05/27 02:31:25;;;;;;;20.42;12.02;;;;;;;9.06;100.00;100802.78;4966835;28;20061;-83
2021/05/27 02:33:51;;;;;;;19.27;11.60;;;;;;;9.04;100.00;100813.66;4969249;28;20042;-83
2021/05/27 02:36:17;;;;;;;21.83;12.27;;;;;;;9.01;100.00;100811.28;4978979;28;20121;-81
2021/05/27 02:38:42;;;;;;;20.98;12.25;;;;;;;9.04;100.00;100813.66;4964707;28;20046;-79
2021/05/27 02:41:08;;;;;;;22.48;12.68;;;;;;;9.03;100.00;100795.88;4984375;28;20046;-79
2021/05/27 02:43:34;;;;;;;18.50;11.55;;;;;;;9.03;100.00;100809.28;4988046;28;20053;-80
2021/05/27 02:46:00;;;;;;;20.88;12.85;;;;;;;9.03;100.00;100807.47;4980984;28;20050;-80
2021/05/27 02:48:26;;;;;;;21.33;13.38;;;;;;;9.03;100.00;100810.13;4986505;28;20506;-82
2021/05/27 02:50:51;;;;;;;20.27;11.15;;;;;;;9.03;100.00;100820.84;4986206;28;20046;-81
2021/05/27 02:53:17;;;;;;;23.08;11.85;;;;;;;9.01;100.00;100814.81;4987430;28;20049;-80
2021/05/27 02:55:42;;;;;;;18.17;11.20;;;;;;;9.01;100.00;100816.63;4963132;28;20050;-80
2021/05/27 02:58:08;;;;;;;17.63;11.40;;;;;;;9.00;100.00;100812.25;4964587;28;20049;-81
2021/05/27 03:00:33;;;;;;;16.38;9.75;;;;;;;9.00;100.00;100828.31;4967557;28;20566;-82
2021/05/27 03:02:59;;;;;;;16.85;10.70;;;;;;;8.96;100.00;100813.56;4970355;28;20039;-80
2021/05/27 03:05:24;;;;;;;18.67;9.57;;;;;;;8.95;100.00;100815.41;4965345;28;20114;-81
2021/05/27 03:07:49;;;;;;;16.60;9.98;;;;;;;8.95;100.00;100814.59;4980927;28;20236;-81
2021/05/27 03:10:15;;;;;;;20.73;10.55;;;;;;;8.98;100.00;100798.22;4962945;28;20057;-82
2021/05/27 03:12:40;;;;;;;16.05;8.75;;;;;;;8.92;100.00;100805.03;4955945;28;20390;-80
2021/05/27 03:15:08;;;;;;;20.33;10.27;;;;;;;8.94;100.00;100807.53;4980635;28;20490;-81
2021/05/27 03:17:33;;;;;;;16.35;9.23;;;;;;;8.95;100.00;100827.97;4983659;28;20170;-81
2021/05/27 03:19:59;;;;;;;22.25;11.48;;;;;;;8.98;100.00;100820.47;4980602;28;20133;-81
2021/05/27 03:22:24;;;;;;;19.35;12.13;;;;;;;8.98;100.00;100824.97;4982815;28;20065;-81
2021/05/27 03:24:50;;;;;;;21.33;10.65;;;;;;;8.96;100.00;100827.78;4983867;28;20042;-82
2021/05/27 03:27:15;;;;;;;17.88;9.98;;;;;;;8.95;100.00;100822.59;4950733;28;20073;-83
2021/05/27 03:29:40;;;;;;;20.50;10.65;;;;;;;8.98;100.00;100841.03;4978857;28;20046;-80
2021/05/27 03:32:06;;;;;;;17.77;9.50;;;;;;;8.95;100.00;100827.97;4980590;28;20068;-83
2021/05/27 03:34:31;;;;;;;16.42;9.38;;;;;;;8.92;100.00;100820.22;4981173;28;20058;-82
2021/05/27 03:36:57;;;;;;;17.23;10.02;;;;;;;8.95;100.00;100827.97;4939349;28;20030;-80
2021/05/27 03:39:22;;;;;;;19.33;10.10;;;;;;;8.96;100.00;100821.59;4961714;28;20108;-82
2021/05/27 03:41:48;;;;;;;18.13;11.05;;;;;;;8.97;100.00;100837.50;4981104;28;20043;-81
2021/05/27 03:44:13;;;;;;;15.75;9.35;;;;;;;8.91;100.00;100832.75;4980795;28;20271;-79
2021/05/27 03:46:42;;;;;;;18.45;9.73;;;;;;;8.94;100.00;100823.59;4975688;28;20131;-81
2021/05/27 03:49:08;;;;;;;19.92;9.82;;;;;;;8.94;100.00;100828.94;4964666;28;20089;-79
2021/05/27 03:51:33;;;;;;;14.00;9.25;;;;;;;8.91;100.00;100826.56;4976528;28;20051;-83
2021/05/27 03:53:59;;;;;;;15.85;8.45;;;;;;;8.87;100.00;100827.88;4982567;28;20491;-82
2021/05/27 03:56:24;;;;;;;19.80;9.93;;;;;;;8.91;100.00;100835.44;4962777;28;20047;-83
2021/05/27 04:01:34;;;;;;;15.80;9.80;;;;;;;8.93;100.00;100829.94;4982128;28;20041;-82
2021/05/27 04:09:27;;;;;;;16.63;9.48;;;;;;;8.91;100.00;100838.09;4987466;28;20054;-83
2021/05/27 04:12:44;;;;;;;17.80;10.15;;;;;;;8.89;100.00;100844.59;4966451;28;20038;-80
2021/05/27 04:14:37;;;;;;;21.00;11.32;;;;;;;8.93;100.00;100848.69;4978117;28;20411;-82
2021/05/27 04:17:03;;;;;;;16.08;9.15;;;;;;;8.93;100.00;100848.69;4978357;28;20062;-83
2021/05/27 04:19:28;;;;;;;19.77;11.18;;;;;;;8.94;100.00;100845.84;4945086;28;20387;-83
2021/05/27 04:21:54;;;;;;;17.80;10.05;;;;;;;8.95;100.00;100849.38;4962096;28;20483;-83
2021/05/27 04:24:19;;;;;;;20.98;9.68;;;;;;;8.90;100.00;100844.47;4976146;28;20454;-81
2021/05/27 04:26:44;;;;;;;20.27;10.93;;;;;;;8.92;100.00;100845.16;4970304;28;20125;-81
2021/05/27 04:29:10;;;;;;;18.30;10.68;;;;;;;8.90;100.00;100844.47;4986718;28;20047;-82
2021/05/27 04:31:35;;;;;;;18.45;10.35;;;;;;;8.93;100.00;100848.69;4950992;28;20042;-82
2021/05/27 04:34:00;;;;;;;17.65;10.52;;;;;;;8.95;100.00;100858.25;4984649;28;20038;-79
2021/05/27 04:36:27;;;;;;;19.02;10.73;;;;;;;8.98;100.00;100854.41;4965264;28;20047;-81
2021/05/27 04:38:52;;;;;;;16.52;9.60;;;;;;;8.96;100.00;100849.22;4982992;28;20499;-81
2021/05/27 04:41:19;;;;;;;15.85;9.18;;;;;;;9.00;100.00;100855.09;4979976;28;20050;-81
2021/05/27 04:43:57;;;;;;;15.30;9.38;;;;;;;8.99;100.00;100862.28;4982715;28;20129;-81
2021/05/27 04:46:23;;;;;;;16.02;9.05;;;;;;;8.96;100.00;100859.91;4982881;28;20414;-84
2021/05/27 04:48:48;;;;;;;15.68;9.20;;;;;;;9.00;100.00;100865.78;4970616;28;20092;-82
2021/05/27 04:51:14;;;;;;;16.60;8.73;;;;;;;9.01;100.00;100872.84;4966047;28;20046;-83
2021/05/27 04:53:39;;;;;;;14.88;9.82;;;;;;;9.03;100.00;100874.38;4952249;28;20103;-81
2021/05/27 04:56:05;;;;;;;13.23;8.15;;;;;;;9.04;100.00;100869.88;4964771;28;20042;-82
2021/05/27 04:58:31;;;;;;;16.48;8.65;;;;;;;9.03;100.00;100855.66;4974849;28;20113;-83
2021/05/27 05:00:58;;;;;;;12.38;8.80;;;;;;;9.06;100.00;100881.25;4984633;28;20042;-83
2021/05/27 05:03:23;;;;;;;12.75;7.80;;;;;;;9.04;100.00;100853.81;4987189;28;20671;-83
2021/05/27 05:05:49;;;;;;;13.88;8.80;;;;;;;9.02;100.00;100877.19;4982102;28;20039;-82
2021/05/27 05:08:14;;;;;;;13.40;8.02;;;;;;;9.01;100.00;100862.16;4969625;28;20407;-80
2021/05/27 05:10:42;;;;;;;13.50;7.70;;;;;;;9.03;100.00;100884.22;4970584;28;20178;-79
2021/05/27 05:13:07;;;;;;;13.88;8.13;;;;;;;8.97;100.00;100866.94;4988811;28;20058;-81
2021/05/27 05:15:38;;;;;;;14.23;8.43;;;;;;;8.99;100.00;100877.50;4958566;28;20077;-83
2021/05/27 05:18:15;;;;;;;12.90;9.52;;;;;;;9.02;100.00;100879.88;4970359;28;20030;-80
2021/05/27 05:20:46;;;;;;;12.77;8.68;;;;;;;9.03;100.00;100885.09;4971849;28;20116;-81
2021/05/27 05:23:12;;;;;;;16.25;9.60;;;;;;;9.03;100.00;100894.94;4979329;28;20035;-81
2021/05/27 05:25:39;;;;;;;16.15;9.02;;;;;;;9.07;100.00;100896.34;4987346;28;20443;-82
2021/05/27 05:28:06;;;;;;;18.30;8.88;;;;;;;9.07;100.00;100893.66;4987682;28;20065;-80
2021/05/27 05:30:31;;;;;;;15.85;9.20;;;;;;;9.08;100.00;100900.69;4988911;28;20054;-82
2021/05/27 05:32:57;;;;;;;14.82;10.10;;;;;;;9.11;100.00;100905.72;4985169;28;20368;-82
2021/05/27 05:35:24;;;;;;;17.08;9.40;;;;;;;9.11;100.00;100905.72;4987133;28;20521;-84
2021/05/27 05:37:50;;;;;;;14.73;10.25;;;;;;;9.11;100.00;100887.00;4968609;28;20034;-83
2021/05/27 05:40:19;;;;;;;16.08;9.82;;;;;;;9.13;100.00;100906.44;4978033;28;20046;-82
2021/05/27 05:42:52;;;;;;;15.15;8.68;;;;;;;9.15;100.00;100901.78;4967002;28;20515;-82
2021/05/27 05:45:19;;;;;;;15.15;9.48;;;;;;;9.19;100.00;100903.13;4973483;28;20547;-81
2021/05/27 05:47:46;;;;;;;13.70;9.32;;;;;;;9.23;100.00;100904.50;4983162;28;20043;-80
2021/05/27 05:50:12;;;;;;;17.05;9.52;;;;;;;9.29;100.00;100912.94;4965772;28;20039;-81
2021/05/27 05:52:38;;;;;;;13.52;7.45;;;;;;;9.30;100.00;100909.28;4968435;28;20035;-82
2021/05/27 05:55:04;;;;;;;13.27;8.88;;;;;;;9.33;100.00;100919.69;4980158;28;20034;-83
2021/05/27 05:57:30;;;;;;;14.25;8.25;;;;;;;9.32;100.00;100912.63;4969662;28;20128;-82
2021/05/27 05:59:55;;;;;;;11.07;6.97;;;;;;;9.34;100.00;100913.31;4982466;28;20038;-84
2021/05/27 06:02:21;;;;;;;8.95;5.97;;;;;;;9.31;100.00;100925.16;4986571;28;20065;-83
2021/05/27 06:04:46;;;;;;;10.98;6.05;;;;;;;9.30;100.00;100920.00;4989933;28;20092;-83
2021/05/27 06:07:11;;;;;;;9.90;6.50;;;;;;;9.31;100.00;100925.16;4972949;28;20030;-82
2021/05/27 06:09:37;;;;;;;9.65;5.75;;;;;;;9.30;100.00;100933.38;4990540;28;20446;-80
2021/05/27 06:12:03;;;;;;;9.45;5.90;;;;;;;9.28;100.00;100928.16;4989896;28;20037;-80
2021/05/27 06:14:28;;;;;;;10.95;6.40;;;;;;;9.30;100.00;100936.88;4966650;28;20042;-82
2021/05/27 06:16:55;;;;;;;8.70;6.13;;;;;;;9.32;100.00;100934.03;4978691;28;20487;-85
2021/05/27 06:19:20;;;;;;;11.40;7.20;;;;;;;9.32;100.00;100934.03;4980950;28;20045;-82
2021/05/27 06:21:45;;;;;;;13.05;7.30;;;;;;;9.33;100.00;100936.59;4984091;28;20626;-80
2021/05/27 06:24:11;;;;;;;10.95;6.55;;;;;;;9.35;100.00;100923.03;4988952;28;20121;-80
2021/05/27 06:26:36;;;;;;;12.75;7.93;;;;;;;9.36;100.00;100943.47;4973096;28;20107;-81
2021/05/27 06:29:03;;;;;;;11.63;6.90;;;;;;;9.33;100.00;100946.47;4953045;28;20050;-84
2021/05/27 06:31:29;;;;;;;13.38;7.68;;;;;;;9.31;100.00;100946.59;4969625;28;20096;-84
2021/05/27 06:33:54;;;;;;;15.82;8.98;;;;;;;9.32;100.00;100945.63;4985568;28;20399;-84
2021/05/27 06:36:20;;;;;;;14.57;8.18;;;;;;;9.33;100.00;100952.66;4988666;28;20030;-84
2021/05/27 06:38:46;;;;;;;19.15;8.40;;;;;;;9.30;100.00;100936.06;4991084;28;20088;-84
2021/05/27 06:41:11;;;;;;;16.52;8.75;;;;;;;9.29;100.00;100950.41;4978592;28;20460;-82
2021/05/27 06:43:37;;;;;;;14.98;8.70;;;;;;;9.34;100.00;100954.31;4969352;28;20142;-82
2021/05/27 06:46:02;;;;;;;11.90;8.48;;;;;;;9.32;100.00;100956.34;4968541;28;20204;-81
2021/05/27 06:48:28;;;;;;;13.48;8.38;;;;;;;9.37;100.00;100943.31;4985361;28;20057;-81
2021/05/27 06:50:53;;;;;;;17.88;9.43;;;;;;;9.41;100.00;100959.94;4954170;28;20034;-84
2021/05/27 06:53:19;;;;;;;15.05;8.65;;;;;;;9.40;100.00;100952.88;4964996;28;20256;-80
2021/05/27 06:55:46;;;;;;;13.35;8.60;;;;;;;9.39;100.00;100951.19;4981277;28;20364;-82
2021/05/27 06:58:12;;;;;;;15.43;8.93;;;;;;;9.42;100.00;100950.91;4964762;28;20054;-81
2021/05/27 07:00:39;;;;;;;17.40;8.73;;;;;;;9.43;100.00;100947.22;4954235;28;20054;-83
2021/05/27 07:03:07;;;;;;;14.70;8.35;;;;;;;9.45;100.00;100967.50;4974272;28;20069;-83
2021/05/27 07:05:34;;;;;;;14.30;8.25;;;;;;;9.45;100.00;100962.13;4954012;28;20050;-85
2021/05/27 07:08:03;;;;;;;12.43;8.77;;;;;;;9.46;100.00;100966.50;4979567;28;20039;-81
2021/05/27 07:10:29;;;;;;;13.57;7.85;;;;;;;9.43;100.00;100961.44;4966920;28;20043;-83
2021/05/27 07:13:00;;;;;;;11.48;7.20;;;;;;;9.40;100.00;100959.06;4968043;28;20060;-83
2021/05/27 07:15:26;;;;;;;10.57;6.60;;;;;;;9.37;100.00;100955.84;4978880;28;20090;-81
2021/05/27 07:17:53;;;;;;;13.23;8.20;;;;;;;9.38;100.00;100965.56;4985669;28;20429;-80
2021/05/27 07:20:20;;;;;;;13.68;8.30;;;;;;;9.39;100.00;100965.44;4986785;28;20125;-79
2021/05/27 07:22:45;;;;;;;13.45;8.05;;;;;;;9.40;100.00;100971.63;4980687;28;20054;-82
2021/05/27 07:25:12;;;;;;;16.92;9.43;;;;;;;9.47;100.00;100975.41;4982428;28;20049;-87
2021/05/27 07:27:38;;;;;;;15.43;8.60;;;;;;;9.42;100.00;100961.59;4984319;28;20050;-81
2021/05/27 07:30:06;;;;;;;12.77;9.27;;;;;;;9.44;100.00;100975.69;4967482;28;20038;-82
2021/05/27 07:32:31;;;;;;;16.65;8.48;;;;;;;9.42;100.00;100978.53;4951650;28;20034;-84
2021/05/27 07:34:57;;;;;;;15.75;8.68;;;;;;;9.45;100.00;100982.72;4969438;28;20042;-84
2021/05/27 07:37:22;;;;;;;12.55;8.10;;;;;;;9.44;100.00;100975.69;4970839;28;20053;-81
2021/05/27 07:39:48;;;;;;;14.55;9.05;;;;;;;9.43;100.00;100979.34;4968653;28;20205;-85
2021/05/27 07:42:13;;;;;;;12.80;8.20;;;;;;;9.38;100.00;100981.63;4968982;28;20038;-82
2021/05/27 07:44:39;;;;;;;13.27;7.80;;;;;;;9.36;100.00;100975.63;4984192;28;20117;-80
2021/05/27 07:47:04;;;;;;;13.90;8.00;;;;;;;9.37;100.00;100996.88;4964445;28;20128;-80
2021/05/27 07:49:30;;;;;;;16.77;9.75;;;;;;;9.44;100.00;100986.41;4981159;28;20039;-82
2021/05/27 07:51:56;;;;;;;16.40;9.30;;;;;;;9.47;100.00;100980.75;4976955;28;20455;-80
2021/05/27 07:54:22;;;;;;;12.20;6.60;;;;;;;9.46;100.00;100981.72;4988808;28;20049;-80
2021/05/27 07:56:48;;;;;;;17.90;7.97;;;;;;;9.43;100.00;100985.53;4981493;28;20513;-83
2021/05/27 07:59:14;;;;;;;14.45;8.05;;;;;;;9.46;100.00;100979.88;4984807;28;20050;-84
2021/05/27 08:01:40;;;;;;;15.75;7.45;;;;;;;9.45;100.00;100998.81;4983413;28;20058;-81
2021/05/27 08:04:06;;;;;;;15.15;9.13;;;;;;;9.49;100.00;100989.47;4968226;28;20049;-80
2021/05/27 08:06:31;;;;;;;15.50;7.88;;;;;;;9.45;100.00;100983.56;4980317;28;20442;-81
2021/05/27 08:08:57;;;;;;;17.10;9.23;;;;;;;9.53;100.00;100990.84;4984210;28;20034;-83
2021/05/27 08:11:23;;;;;;;14.93;8.90;;;;;;;9.54;100.00;100997.03;4977186;28;20098;-81
2021/05/27 08:13:48;;;;;;;16.35;9.70;;;;;;;9.56;100.00;101005.78;4959583;28;20038;-85
2021/05/27 08:16:14;;;;;;;18.92;9.85;;;;;;;9.54;100.00;101002.41;4967758;28;20054;-82
2021/05/27 08:18:39;;;;;;;17.88;8.90;;;;;;;9.52;100.00;100989.16;4979141;28;20455;-83
2021/05/27 08:21:06;;;;;;;16.80;9.60;;;;;;;9.58;100.00;100996.59;4967780;28;20085;-81
2021/05/27 08:23:31;;;;;;;16.52;9.00;;;;;;;9.60;100.00;101002.63;4981184;28;20061;-81
2021/05/27 08:25:56;;;;;;;18.88;10.50;;;;;;;9.64;100.00;101008.56;4963394;28;20054;-83
2021/05/27 08:28:22;;;;;;;16.40;8.02;;;;;;;9.63;100.00;100994.28;4964301;28;20499;-85
2021/05/27 08:30:47;;;;;;;16.27;9.50;;;;;;;9.63;100.00;101002.31;4989876;28;20121;-81
2021/05/27 08:33:13;;;;;;;16.95;9.02;;;;;;;9.66;100.00;100999.34;4989143;28;20042;-81
2021/05/27 08:35:38;;;;;;;15.40;8.80;;;;;;;9.67;100.00;101009.06;4969964;28;20218;-81
2021/05/27 08:38:04;;;;;;;18.13;9.32;;;;;;;9.69;100.00;101007.06;4984140;28;20047;-79
2021/05/27 08:40:29;;;;;;;12.15;8.07;;;;;;;9.66;100.00;101011.91;4947699;28;20050;-82
2021/05/27 08:42:58;;;;;;;18.67;8.93;;;;;;;9.64;100.00;101013.91;4985207;28;20046;-83
2021/05/27 08:45:34;;;;;;;16.02;7.55;;;;;;;9.62;100.00;101021.25;4976904;28;20074;-81
2021/05/27 08:47:59;;;;;;;19.02;8.65;;;;;;;9.65;100.00;101008.38;4965422;28;20038;-83
2021/05/27 08:50:34;;;;;;;16.58;8.02;;;;;;;9.67;100.00;101019.78;4976441;28;20050;-83
2021/05/27 08:53:00;;;;;;;18.48;8.50;;;;;;;9.74;100.00;101029.91;4988577;28;20038;-83
2021/05/27 08:55:25;;;;;;;13.65;8.63;;;;;;;9.74;100.00;101019.19;4983552;28;20138;-80
2021/05/27 08:57:51;;;;;;;14.13;8.98;;;;;;;9.77;100.00;101029.59;4977811;28;20477;-84
2021/05/27 09:00:18;;;;;;;14.82;9.60;;;;;;;9.80;100.00;101038.16;4967791;28;20050;-80
2021/05/27 09:03:00;;;;;;;13.88;7.25;;;;;;;9.76;100.00;101028.75;4983334;28;20085;-83
2021/05/27 09:05:28;;;;;;;17.42;7.97;;;;;;;9.76;100.00;101031.44;4980637;28;20046;-80
2021/05/27 09:07:53;;;;;;;11.35;7.28;;;;;;;9.73;100.00;101033.59;4966332;28;20054;-82
2021/05/27 09:10:20;;;;;;;12.82;7.60;;;;;;;9.76;100.00;101044.00;4983346;28;20053;-81
2021/05/27 09:12:45;;;;;;;12.68;7.28;;;;;;;9.79;100.00;101044.53;4981680;28;20046;-81
2021/05/27 09:15:16;;;;;;;12.05;7.30;;;;;;;9.83;100.00;101039.69;4983638;28;20395;-82
2021/05/27 09:17:47;;;;;;;17.52;7.40;;;;;;;9.83;100.00;101045.06;4982143;28;20050;-79
2021/05/27 09:20:26;;;;;;;12.35;8.38;;;;;;;9.76;100.00;101044.00;4982595;28;20042;-87
2021/05/27 09:23:24;;;;;;;;;;;;;;;9.75;100.00;101042.28;4983044;28;20126;-80
2021/05/27 09:25:58;;;;;;;14.70;7.07;;;;;;;9.67;100.00;101051.13;4950442;28;19917;-84
2021/05/27 09:28:29;;;;;;;12.07;6.65;;;;;;;9.72;100.00;101054.16;4983445;28;20054;-81
2021/05/27 09:30:57;;;;;;;13.68;7.60;;;;;;;9.77;100.00;101061.75;4978876;28;20414;-84
2021/05/27 09:33:42;;;;;;;11.45;6.10;;;;;;;9.75;100.00;101058.38;4982537;28;20061;-78
2021/05/27 09:36:10;;;;;;;11.95;6.90;;;;;;;9.77;100.00;101059.06;4987372;28;20073;-78
2021/05/27 09:38:38;;;;;;;14.35;6.70;;;;;;;9.73;100.00;101065.75;4970933;28;20054;-82
2021/05/27 09:41:20;;;;;;;13.60;7.50;;;;;;;9.76;100.00;101062.75;4987999;28;20070;-83
2021/05/27 09:43:50;;;;;;;11.52;7.20;;;;;;;9.77;100.00;101067.09;4984512;28;20050;-82
2021/05/27 09:46:16;;;;;;;13.82;7.57;;;;;;;9.77;100.00;101073.31;4979955;28;20490;-78
2021/05/27 09:48:43;;;;;;;17.02;8.45;;;;;;;9.82;100.00;101068.34;4968765;28;20141;-79
2021/05/27 09:51:09;;;;;;;15.48;7.57;;;;;;;9.83;100.00;101078.06;4967889;28;20102;-86
2021/05/27 09:53:35;;;;;;;14.02;8.15;;;;;;;9.86;100.00;101076.91;4968924;28;20050;-82
2021/05/27 09:56:04;;;;;;;15.20;7.57;;;;;;;9.85;100.00;101064.50;4970269;28;20046;-82
2021/05/27 09:58:29;;;;;;;16.88;7.93;;;;;;;9.91;100.00;101064.72;4983740;28;20039;-83
2021/05/27 10:00:55;;;;;;;15.63;8.50;;;;;;;9.97;100.00;101076.69;4985197;28;20056;-81
2021/05/27 10:03:41;;;;;;;13.98;8.60;;;;;;;10.04;100.00;101066.19;4963811;28;20062;-85
2021/05/27 10:06:09;;;;;;;16.83;8.20;;;;;;;10.07;100.00;101074.78;4984678;28;20050;-83
2021/05/27 10:08:49;;;;;;;16.55;7.82;;;;;;;10.05;100.00;101070.56;4968027;28;20058;-88
2021/05/27 10:11:16;;;;;;;16.27;7.95;;;;;;;10.07;100.00;101085.50;4990053;28;20045;-84
2021/05/27 10:13:42;;;;;;;16.73;8.55;;;;;;;10.11;100.00;101078.00;4968846;28;20081;-79
2021/05/27 10:16:17;;;;;;;16.75;8.02;;;;;;;10.09;100.00;101079.97;4974980;28;20449;-82
2021/05/27 10:18:42;;;;;;;16.83;8.13;;;;;;;10.14;100.00;101086.56;4972636;28;20038;-77
2021/05/27 10:21:09;;;;;;;14.70;7.88;;;;;;;10.15;100.00;101092.75;4986088;28;20369;-84
2021/05/27 10:23:35;;;;;;;13.55;7.32;;;;;;;10.14;100.00;101093.78;4989046;28;20046;-81
2021/05/27 10:26:01;;;;;;;14.38;8.38;;;;;;;10.24;100.00;101097.22;4991963;28;20132;-82
2021/05/27 10:28:27;;;;;;;14.48;8.98;;;;;;;10.28;100.00;101098.63;4972051;28;20053;-82
2021/05/27 10:30:53;;;;;;;15.20;8.85;;;;;;;10.28;100.00;101097.78;4981594;28;20050;-86
2021/05/27 10:33:20;;;;;;;14.30;7.70;;;;;;;10.19;100.00;101094.16;4983708;28;20120;-85
2021/05/27 10:35:58;;;;;;;16.30;9.10;;;;;;;10.19;100.00;101098.69;4962870;28;20038;-83
2021/05/27 10:38:41;;;;;;;14.65;8.70;;;;;;;10.19;100.00;101087.97;4970417;28;20181;-85
2021/05/27 10:41:30;;;;;;;16.35;9.30;;;;;;;10.22;100.00;101101.06;4982192;28;20050;-86
2021/05/27 10:43:58;;;;;;;13.35;7.90;;;;;;;10.21;100.00;101102.03;4919921;28;20663;-83
2021/05/27 10:46:24;;;;;;;16.40;7.75;;;;;;;10.27;100.00;101096.06;4982336;28;20066;-87
2021/05/27 10:48:50;;;;;;;14.82;8.02;;;;;;;10.29;100.00;101107.50;4980576;28;20621;-81
2021/05/27 10:51:30;;;;;;;15.90;8.20;;;;;;;10.30;100.00;101106.50;4979846;28;20606;-82
2021/05/27 10:54:07;;;;;;;15.88;7.90;;;;;;;10.26;100.00;101113.16;4985073;28;20078;-85
2021/05/27 10:56:32;;;;;;;13.05;9.10;;;;;;;10.26;100.00;101113.16;4975789;28;20348;-85
2021/05/27 10:58:58;;;;;;;13.52;9.00;;;;;;;10.25;100.00;101116.84;4987657;28;20149;-87
2021/05/27 11:01:33;;;;;;;18.52;7.85;;;;;;;10.22;100.00;101122.50;4972360;28;20324;-86
2021/05/27 11:04:00;;;;;;;18.40;9.45;;;;;;;10.21;100.00;101120.81;4985869;28;20054;-81
2021/05/27 11:06:38;;;;;;;17.80;10.10;;;;;;;10.22;100.00;101125.19;4981139;28;20046;-85
2021/05/27 11:09:07;;;;;;;16.75;9.43;;;;;;;10.19;100.00;101126.34;4979499;28;20376;-84
2021/05/27 11:11:53;;;;;;;19.33;9.00;;;;;;;10.10;100.00;101132.63;4981799;28;20339;-80
2021/05/27 11:15:03;;;;;;;18.08;9.10;;;;;;;10.07;100.00;101133.78;4968087;28;20053;-82
2021/05/27 11:17:27;;;;;;;16.00;9.68;;;;;;;10.03;100.00;101140.41;4975092;28;20046;-79
2021/05/27 11:22:32;;;;;;;21.08;9.70;;;;;;;10.04;100.00;101150.16;4984464;28;20132;-83
2021/05/27 11:25:07;;;;;;;24.08;9.85;;;;;;;10.10;100.00;101143.34;4972915;28;20050;-80
2021/05/27 11:27:37;;;;;;;20.35;10.93;;;;;;;10.11;100.00;101151.22;4986185;28;20035;-81
2021/05/27 11:30:21;;;;;;;17.83;9.70;;;;;;;10.16;100.00;101140.06;4983321;28;20050;-86
2021/05/27 11:32:49;;;;;;;19.23;11.52;;;;;;;10.22;100.00;101146.66;4969621;28;20129;-79